Time;durP1;ratioP1;P1;durP2;ratioP2;P2;SDS_P1;SDS_P2;PMS_P1;PMS_P2;Temp;Humidity;BMP_temperature;BMP_pressure;BME280_temperature;BME280_humidity;BME280_pressure;Samples;Min_cycle;Max_cycle;Signal;HPM_P1;HPM_P2
2023/08/05 00:00:38;;;;;;;6.93;4.78;;;;;;;19.40;76.11;99802.38;5018161;28;20093;-83
2023/08/05 00:03:05;;;;;;;7.07;4.28;;;;;;;19.39;76.24;99796.16;5037592;28;20133;-83
2023/08/05 00:05:32;;;;;;;6.38;4.47;;;;;;;19.39;76.55;99795.34;5003415;28;20128;-83
2023/08/05 00:07:59;;;;;;;7.47;4.60;;;;;;;19.40;76.48;99794.28;4982647;28;20061;-83
2023/08/05 00:10:25;;;;;;;13.57;5.07;;;;;;;19.37;76.77;99792.00;5018425;28;20046;-83
2023/08/05 00:12:52;;;;;;;10.50;4.97;;;;;;;19.34;76.68;99793.22;5035193;28;20414;-82
2023/08/05 00:15:19;;;;;;;7.28;5.05;;;;;;;19.33;76.71;99799.59;4975367;28;20855;-84
2023/08/05 00:17:46;;;;;;;7.60;4.63;;;;;;;19.34;76.53;99811.25;5003466;28;20490;-83
2023/08/05 00:20:13;;;;;;;8.25;5.53;;;;;;;19.33;76.75;99804.16;4999896;28;20081;-83
2023/08/05 00:22:40;;;;;;;7.43;5.57;;;;;;;19.32;76.40;99814.09;5013756;28;20053;-82
2023/08/05 00:25:07;;;;;;;12.98;5.63;;;;;;;19.30;76.96;99819.69;5034634;28;20045;-82
2023/08/05 00:27:34;;;;;;;7.30;5.05;;;;;;;19.29;77.47;99814.50;4986801;28;20038;-82
2023/08/05 00:30:00;;;;;;;8.45;6.20;;;;;;;19.27;78.05;99813.84;5000225;28;20359;-83
2023/08/05 00:32:29;;;;;;;8.02;5.28;;;;;;;19.24;77.89;99811.56;5016102;28;20777;-83
2023/08/05 00:34:56;;;;;;;6.28;4.68;;;;;;;19.22;78.33;99811.72;5012273;28;20054;-82
2023/08/05 00:37:23;;;;;;;12.60;5.50;;;;;;;19.21;78.53;99817.28;4980712;28;20061;-83
2023/08/05 00:39:51;;;;;;;9.68;5.07;;;;;;;19.20;78.91;99823.72;4988842;28;20454;-82
2023/08/05 00:42:19;;;;;;;9.52;5.03;;;;;;;19.20;78.92;99823.72;4985613;28;20045;-82
2023/08/05 00:44:46;;;;;;;8.70;5.57;;;;;;;19.20;79.59;99821.03;4999167;28;20047;-83
2023/08/05 00:47:16;;;;;;;12.60;5.88;;;;;;;19.19;79.74;99827.44;5012073;28;20112;-83
2023/08/05 00:49:43;;;;;;;9.90;5.82;;;;;;;19.20;79.71;99826.41;5008581;28;20053;-82
2023/08/05 00:52:10;;;;;;;14.07;6.68;;;;;;;19.19;79.74;99824.75;5032393;28;20133;-83
2023/08/05 00:54:36;;;;;;;14.00;6.20;;;;;;;19.22;79.90;99829.75;4983416;28;20129;-83
2023/08/05 00:57:04;;;;;;;11.32;6.65;;;;;;;19.24;79.85;99827.72;4990183;28;20045;-83
2023/08/05 00:59:30;;;;;;;10.77;6.32;;;;;;;19.22;79.86;99818.97;4998999;28;20045;-82
2023/08/05 01:01:57;;;;;;;12.55;6.35;;;;;;;19.25;80.18;99813.22;5012788;28;20050;-83
2023/08/05 01:04:24;;;;;;;12.02;6.45;;;;;;;19.24;80.08;99808.88;4999622;28;20133;-82
2023/08/05 01:06:51;;;;;;;11.40;6.30;;;;;;;19.25;80.33;99803.28;4999038;28;20113;-83
2023/08/05 01:09:18;;;;;;;11.90;6.25;;;;;;;19.26;79.92;99799.56;5016555;28;20123;-82
2023/08/05 01:11:44;;;;;;;10.32;7.07;;;;;;;19.24;80.11;99777.38;4960812;28;20092;-83
2023/08/05 01:14:11;;;;;;;12.02;7.00;;;;;;;19.22;79.49;99795.59;4963050;28;20039;-83
2023/08/05 01:16:38;;;;;;;8.27;6.10;;;;;;;19.21;79.53;99793.94;4967675;28;20050;-83
2023/08/05 01:19:10;;;;;;;12.65;6.65;;;;;;;19.21;79.14;99788.53;4961643;28;20483;-83
2023/08/05 01:21:47;;;;;;;9.75;5.97;;;;;;;19.18;79.39;99774.63;4974319;28;20517;-83
2023/08/05 01:24:48;;;;;;;11.95;5.93;;;;;;;19.13;79.45;99767.13;4977029;28;20120;-83
2023/08/05 01:27:15;;;;;;;10.02;6.25;;;;;;;19.21;78.93;99767.00;4966085;28;20050;-83
2023/08/05 01:29:41;;;;;;;11.75;6.75;;;;;;;19.21;79.16;99779.59;4964419;28;20454;-84
2023/08/05 01:32:09;;;;;;;9.88;5.90;;;;;;;19.22;78.68;99770.53;4979393;28;20097;-83
2023/08/05 01:34:37;;;;;;;11.20;6.75;;;;;;;19.20;79.40;99773.41;4960967;28;20062;-83
2023/08/05 01:37:04;;;;;;;7.75;5.78;;;;;;;19.21;79.30;99782.31;4962113;28;20046;-83
2023/08/05 01:39:30;;;;;;;13.00;5.80;;;;;;;19.19;79.31;99773.63;4959717;28;20105;-82
2023/08/05 01:41:57;;;;;;;11.80;6.07;;;;;;;19.18;78.90;99794.28;4970002;28;20096;-83
2023/08/05 01:44:24;;;;;;;9.20;5.93;;;;;;;19.19;77.91;99785.22;4962997;28;20154;-84
2023/08/05 01:46:51;;;;;;;15.07;5.97;;;;;;;19.19;77.87;99795.97;4980329;28;20149;-83
2023/08/05 01:49:18;;;;;;;11.18;6.20;;;;;;;19.20;78.32;99791.41;4946864;28;20047;-83
2023/08/05 01:51:45;;;;;;;6.05;5.28;;;;;;;19.18;78.59;99785.38;4973484;28;22203;-82
2023/08/05 01:54:12;;;;;;;10.75;6.15;;;;;;;19.16;78.49;99793.69;4971396;28;20074;-82
2023/08/05 01:56:39;;;;;;;8.73;5.78;;;;;;;19.16;78.42;99784.75;4981627;28;20042;-82
2023/08/05 01:59:06;;;;;;;7.82;5.53;;;;;;;19.15;78.75;99789.28;4968273;28;20065;-84
2023/08/05 02:01:59;;;;;;;8.82;5.78;;;;;;;19.04;79.07;99785.25;4955429;28;20046;-82
2023/08/05 02:04:26;;;;;;;7.05;4.90;;;;;;;19.12;79.07;99792.38;4971293;28;20144;-83
2023/08/05 02:06:53;;;;;;;9.43;6.03;;;;;;;19.12;79.31;99794.25;4975734;28;20069;-82
2023/08/05 02:09:20;;;;;;;11.23;5.85;;;;;;;19.11;79.59;99787.19;4968669;28;20054;-83
2023/08/05 02:11:46;;;;;;;8.60;5.85;;;;;;;19.10;80.28;99789.03;4954547;28;20057;-83
2023/08/05 02:14:13;;;;;;;11.00;5.45;;;;;;;19.07;80.49;99792.94;4980929;28;20068;-83
2023/08/05 02:16:40;;;;;;;9.40;5.93;;;;;;;19.04;80.37;99779.88;4960114;28;20077;-84
2023/08/05 02:19:07;;;;;;;9.00;5.63;;;;;;;19.05;80.84;99789.63;4984056;28;20042;-83
2023/08/05 02:21:37;;;;;;;10.63;5.68;;;;;;;19.03;81.16;99788.13;4999004;28;20401;-83
2023/08/05 02:24:09;;;;;;;8.00;5.57;;;;;;;19.05;81.07;99780.72;4989297;28;20046;-83
2023/08/05 02:26:36;;;;;;;8.68;5.45;;;;;;;19.05;81.12;99781.53;5014896;28;20053;-83
2023/08/05 02:29:03;;;;;;;7.43;5.47;;;;;;;19.04;81.22;99779.06;4974903;28;20121;-83
2023/08/05 02:31:30;;;;;;;11.88;6.15;;;;;;;19.05;80.77;99775.31;4971800;28;20047;-83
2023/08/05 02:33:57;;;;;;;9.48;6.22;;;;;;;19.05;80.79;99769.94;4967254;28;20035;-83
2023/08/05 02:36:23;;;;;;;13.38;6.10;;;;;;;19.05;80.77;99767.25;4987332;28;20066;-83
2023/08/05 02:38:50;;;;;;;11.43;7.38;;;;;;;19.06;80.79;99769.75;4966996;28;20100;-83
2023/08/05 02:41:17;;;;;;;8.88;6.32;;;;;;;19.04;80.90;99760.22;4985855;28;20409;-83
2023/08/05 02:43:44;;;;;;;10.95;6.85;;;;;;;19.04;81.02;99761.03;4954805;28;20065;-84
2023/08/05 02:46:11;;;;;;;11.00;7.13;;;;;;;19.03;80.70;99761.22;4973904;28;20040;-83
2023/08/05 02:48:38;;;;;;;10.57;7.53;;;;;;;19.02;81.32;99762.25;5004663;28;20062;-82
2023/08/05 02:51:04;;;;;;;14.23;7.18;;;;;;;19.01;81.69;99764.13;5021021;28;20049;-82
2023/08/05 02:53:31;;;;;;;10.93;6.97;;;;;;;18.99;81.81;99749.19;5036794;28;20151;-83
2023/08/05 02:55:58;;;;;;;12.15;6.38;;;;;;;18.98;82.00;99736.75;5003305;28;20098;-83
2023/08/05 02:58:25;;;;;;;9.85;6.32;;;;;;;18.97;82.23;99732.41;4970732;28;20042;-83
2023/08/05 03:00:52;;;;;;;7.85;5.57;;;;;;;18.94;81.74;99719.34;4997570;28;20054;-83
2023/08/05 03:03:18;;;;;;;12.15;6.00;;;;;;;18.94;82.06;99713.97;5006084;28;20060;-84
2023/08/05 03:05:45;;;;;;;8.75;5.82;;;;;;;18.94;82.04;99728.25;5019976;28;20124;-83
2023/08/05 03:08:12;;;;;;;12.35;6.13;;;;;;;18.93;81.35;99712.28;5010459;28;20049;-84
2023/08/05 03:10:39;;;;;;;9.45;5.40;;;;;;;18.93;80.06;99725.75;5009724;28;20042;-84
2023/08/05 03:13:06;;;;;;;10.27;5.80;;;;;;;18.92;79.20;99741.06;5004587;28;20042;-82
2023/08/05 03:15:34;;;;;;;7.82;6.13;;;;;;;18.93;79.08;99747.25;4985461;28;20046;-82
2023/08/05 03:18:08;;;;;;;10.07;6.22;;;;;;;18.93;78.83;99755.34;4977632;28;20107;-84
2023/08/05 03:20:35;;;;;;;9.15;5.22;;;;;;;18.93;78.47;99753.50;5005984;28;20489;-82
2023/08/05 03:23:08;;;;;;;8.48;5.15;;;;;;;18.93;78.54;99763.41;4961676;28;20050;-82
2023/08/05 03:25:35;;;;;;;10.32;5.05;;;;;;;18.92;78.55;99754.50;4974339;28;20434;-83
2023/08/05 03:28:04;;;;;;;7.95;5.78;;;;;;;18.93;78.94;99766.09;4973909;28;20050;-83
2023/08/05 03:30:35;;;;;;;9.43;5.10;;;;;;;18.91;79.07;99763.63;4998256;28;20046;-83
2023/08/05 03:33:03;;;;;;;12.07;5.20;;;;;;;18.91;78.80;99768.16;4944171;28;20171;-83
2023/08/05 03:35:32;;;;;;;8.98;4.78;;;;;;;18.90;78.54;99766.47;4969036;28;20054;-83
2023/08/05 03:37:59;;;;;;;7.18;5.55;;;;;;;18.89;79.07;99773.72;4976117;28;20437;-83
2023/08/05 03:40:27;;;;;;;7.68;5.28;;;;;;;18.88;78.85;99782.84;4966718;28;20038;-83
2023/08/05 03:42:54;;;;;;;6.45;4.68;;;;;;;18.87;78.58;99784.66;4972750;28;20405;-84
2023/08/05 03:45:22;;;;;;;7.60;4.78;;;;;;;18.83;78.85;99787.97;4949466;28;20042;-82
2023/08/05 03:47:50;;;;;;;6.18;4.55;;;;;;;18.85;79.02;99794.81;4980142;28;20108;-83
2023/08/05 03:50:17;;;;;;;6.45;4.38;;;;;;;18.85;78.44;99800.19;4969308;28;20509;-83
2023/08/05 03:52:44;;;;;;;11.38;5.95;;;;;;;18.85;78.62;99802.88;4959142;28;20053;-83
2023/08/05 03:55:11;;;;;;;8.15;4.60;;;;;;;18.82;78.17;99795.16;4981692;28;20052;-82
2023/08/05 03:57:38;;;;;;;9.15;4.43;;;;;;;18.81;76.59;99798.91;4969904;28;20502;-83
2023/08/05 04:00:08;;;;;;;5.75;4.43;;;;;;;18.83;76.38;99799.53;4979976;28;20043;-83
2023/08/05 04:02:38;;;;;;;10.68;4.50;;;;;;;18.80;76.20;99797.25;4979975;28;20043;-83
2023/08/05 04:05:06;;;;;;;6.70;3.83;;;;;;;18.81;76.91;99800.75;4967974;28;20053;-83
2023/08/05 04:07:33;;;;;;;4.65;4.00;;;;;;;18.82;76.67;99808.63;4969995;28;20042;-83
2023/08/05 04:10:00;;;;;;;6.38;4.15;;;;;;;18.82;77.03;99814.00;4966941;28;20592;-83
2023/08/05 04:12:28;;;;;;;9.38;4.60;;;;;;;18.82;76.60;99818.56;4965357;28;20133;-83
2023/08/05 04:14:58;;;;;;;7.35;4.45;;;;;;;18.82;76.39;99827.44;4963957;28;20073;-83
2023/08/05 04:17:27;;;;;;;6.70;4.50;;;;;;;18.81;76.05;99819.59;4963582;28;20539;-83
2023/08/05 04:19:55;;;;;;;11.50;4.63;;;;;;;18.79;76.56;99830.53;4970457;28;20096;-83
2023/08/05 04:22:24;;;;;;;7.20;4.30;;;;;;;18.81;76.42;99827.66;4954081;28;20389;-83
2023/08/05 04:24:51;;;;;;;5.38;3.88;;;;;;;18.80;76.97;99831.34;4937100;28;20097;-83
2023/08/05 04:27:18;;;;;;;4.97;4.47;;;;;;;18.81;77.20;99830.34;4960864;28;20054;-83
2023/08/05 04:29:46;;;;;;;6.18;4.40;;;;;;;18.77;77.36;99835.25;4966211;28;20137;-83
2023/08/05 04:32:13;;;;;;;7.90;4.47;;;;;;;18.79;77.20;99837.78;4939137;28;20137;-83
2023/08/05 04:34:40;;;;;;;8.05;4.50;;;;;;;18.79;77.49;99837.78;4977887;28;20042;-82
2023/08/05 04:37:19;;;;;;;4.80;4.20;;;;;;;18.71;77.33;99833.31;4973401;28;20049;-83
2023/08/05 04:39:46;;;;;;;7.15;4.30;;;;;;;18.77;77.78;99831.75;4979532;28;20141;-83
2023/08/05 04:42:13;;;;;;;8.77;5.00;;;;;;;18.76;77.70;99833.59;5017375;28;20693;-83
2023/08/05 04:44:40;;;;;;;7.82;4.35;;;;;;;18.75;78.39;99831.06;4991396;28;20104;-83
2023/08/05 04:47:08;;;;;;;7.75;4.55;;;;;;;18.74;78.71;99830.22;4983728;28;20049;-83
2023/08/05 04:49:35;;;;;;;7.20;4.82;;;;;;;18.75;79.06;99831.06;5036934;28;20045;-83
2023/08/05 04:52:06;;;;;;;6.13;4.32;;;;;;;18.76;79.09;99827.41;4987895;28;20037;-83
2023/08/05 04:54:40;;;;;;;8.60;5.20;;;;;;;18.73;78.98;99827.75;5013447;28;20038;-83
2023/08/05 04:57:07;;;;;;;8.38;4.63;;;;;;;18.76;78.75;99830.91;5032564;28;20042;-84
2023/08/05 04:59:34;;;;;;;9.15;5.32;;;;;;;18.77;78.61;99827.19;4971423;28;20453;-83
2023/08/05 05:02:00;;;;;;;8.75;4.70;;;;;;;18.78;78.71;99831.56;4987114;28;20510;-83
2023/08/05 05:04:27;;;;;;;7.65;4.93;;;;;;;18.79;78.40;99843.97;5001036;28;20521;-84
2023/08/05 05:06:54;;;;;;;5.70;4.18;;;;;;;18.79;77.84;99843.97;4979431;28;20042;-83
2023/08/05 05:09:21;;;;;;;7.82;4.30;;;;;;;18.81;78.12;99846.50;5002104;28;20048;-83
2023/08/05 05:11:48;;;;;;;8.18;4.50;;;;;;;18.81;77.97;99844.63;5034211;28;20457;-85
2023/08/05 05:14:15;;;;;;;6.20;4.57;;;;;;;18.81;78.03;99847.31;4994236;28;20623;-83
2023/08/05 05:16:42;;;;;;;6.78;4.60;;;;;;;18.81;77.59;99844.63;5037133;28;20100;-84
2023/08/05 05:19:09;;;;;;;8.75;4.95;;;;;;;18.81;77.34;99852.69;4991560;28;20061;-84
2023/08/05 05:21:36;;;;;;;8.90;4.28;;;;;;;18.82;76.54;99859.75;5003639;28;20088;-83
2023/08/05 05:24:03;;;;;;;8.02;4.40;;;;;;;18.85;76.19;99855.84;5003037;28;20486;-83
2023/08/05 05:26:30;;;;;;;7.35;4.43;;;;;;;18.85;76.54;99845.06;4974552;28;20490;-84
2023/08/05 05:28:57;;;;;;;10.57;5.47;;;;;;;18.88;76.65;99842.03;5002241;28;20038;-83
2023/08/05 05:31:24;;;;;;;7.53;4.90;;;;;;;18.88;77.10;99852.78;5001809;28;20052;-83
2023/08/05 05:33:51;;;;;;;6.72;4.68;;;;;;;18.86;75.95;99844.06;5020530;28;20128;-83
2023/08/05 05:36:18;;;;;;;8.63;4.47;;;;;;;18.89;75.68;99848.25;5003296;28;20053;-82
2023/08/05 05:38:45;;;;;;;8.57;4.70;;;;;;;18.90;75.98;99847.19;5005125;28;20050;-83
2023/08/05 05:41:11;;;;;;;9.80;4.50;;;;;;;18.91;76.25;99832.75;5005012;28;20049;-83
2023/08/05 05:43:38;;;;;;;7.05;4.80;;;;;;;18.93;75.97;99826.16;5005468;28;20077;-83
2023/08/05 05:46:05;;;;;;;6.50;4.78;;;;;;;18.93;76.27;99826.16;4987591;28;20041;-83
2023/08/05 05:48:32;;;;;;;6.82;4.50;;;;;;;18.93;76.28;99814.53;5017679;28;20062;-83
2023/08/05 05:50:59;;;;;;;6.38;4.55;;;;;;;18.93;76.15;99812.69;4992432;28;20045;-83
2023/08/05 05:53:26;;;;;;;9.10;5.00;;;;;;;18.94;76.53;99818.91;4991167;28;20061;-83
2023/08/05 05:55:53;;;;;;;5.60;4.00;;;;;;;18.94;75.29;99821.59;5023481;28;20042;-83
2023/08/05 05:58:20;;;;;;;6.97;4.30;;;;;;;18.95;74.84;99826.78;5037775;28;20050;-83
2023/08/05 06:00:47;;;;;;;5.72;4.53;;;;;;;18.96;74.91;99824.94;5007066;28;20049;-83
2023/08/05 06:03:14;;;;;;;7.13;4.28;;;;;;;18.96;74.59;99822.25;5017344;28;20510;-83
2023/08/05 06:05:41;;;;;;;6.13;3.95;;;;;;;18.96;74.82;99825.75;5005585;28;20041;-83
2023/08/05 06:08:08;;;;;;;7.28;4.28;;;;;;;18.99;74.44;99827.25;4960042;28;20169;-83
2023/08/05 06:10:38;;;;;;;7.90;4.28;;;;;;;18.96;74.17;99825.75;5039821;28;20463;-83
2023/08/05 06:13:05;;;;;;;7.35;4.05;;;;;;;19.00;74.44;99818.13;4986589;28;20038;-83
2023/08/05 06:15:31;;;;;;;9.10;4.20;;;;;;;19.03;74.67;99820.44;4960704;28;20049;-83
2023/08/05 06:17:58;;;;;;;4.45;3.90;;;;;;;18.99;74.23;99822.69;4970177;28;20078;-83
2023/08/05 06:20:25;;;;;;;6.93;4.57;;;;;;;18.98;74.12;99820.16;4975990;28;20042;-83
2023/08/05 06:22:52;;;;;;;5.68;3.90;;;;;;;18.96;73.79;99812.31;4999043;28;20477;-83
2023/08/05 06:25:19;;;;;;;9.02;4.22;;;;;;;18.99;73.85;99816.47;4994684;28;20073;-83
2023/08/05 06:27:46;;;;;;;4.45;3.50;;;;;;;19.00;74.22;99802.81;4984451;28;20073;-82
2023/08/05 06:30:12;;;;;;;5.35;4.07;;;;;;;19.06;74.90;99809.31;4986464;28;20475;-83
2023/08/05 06:32:39;;;;;;;6.53;4.30;;;;;;;19.09;74.37;99806.22;4987368;28;20073;-83
2023/08/05 06:35:06;;;;;;;7.47;4.43;;;;;;;19.11;74.71;99812.25;5019767;28;20053;-83
2023/08/05 06:37:33;;;;;;;6.03;4.10;;;;;;;19.10;75.09;99807.88;5020509;28;20499;-84
2023/08/05 06:40:00;;;;;;;6.63;4.90;;;;;;;19.11;75.30;99797.94;5007402;28;20077;-83
2023/08/05 06:42:27;;;;;;;6.13;3.95;;;;;;;19.16;75.57;99790.97;4988461;28;20144;-83
2023/08/05 06:44:54;;;;;;;6.55;4.57;;;;;;;19.21;76.20;99793.06;5005926;28;20042;-83
2023/08/05 06:47:21;;;;;;;6.75;4.30;;;;;;;19.25;75.74;99781.72;4965855;28;20063;-83
2023/08/05 06:49:47;;;;;;;5.75;3.75;;;;;;;19.28;75.41;99786.75;4989310;28;20050;-83
2023/08/05 06:52:14;;;;;;;5.72;4.22;;;;;;;19.30;75.02;99792.75;5000192;28;20132;-84
2023/08/05 06:54:41;;;;;;;5.88;3.47;;;;;;;19.34;74.64;99785.13;5014201;28;20049;-82
2023/08/05 06:57:08;;;;;;;4.43;3.55;;;;;;;19.34;74.79;99789.69;4991913;28;20064;-83
2023/08/05 06:59:34;;;;;;;6.80;3.53;;;;;;;19.37;74.90;99792.81;4985961;28;20437;-83
2023/08/05 07:02:01;;;;;;;7.43;4.20;;;;;;;19.39;74.90;99782.69;4973931;28;20504;-83
2023/08/05 07:04:28;;;;;;;4.28;3.53;;;;;;;19.39;74.37;99780.00;4944817;28;20046;-83
2023/08/05 07:06:55;;;;;;;11.40;3.38;;;;;;;19.41;74.23;99782.47;4970496;28;20042;-82
2023/08/05 07:09:22;;;;;;;3.85;3.38;;;;;;;19.38;73.05;99767.53;4982874;28;20581;-85
2023/08/05 07:11:49;;;;;;;4.03;3.05;;;;;;;19.38;73.03;99766.72;4973120;28;20100;-86
2023/08/05 07:14:16;;;;;;;4.70;3.03;;;;;;;19.40;74.09;99764.66;4953043;28;20060;-85
2023/08/05 07:17:07;;;;;;;3.35;3.05;;;;;;;19.48;73.59;99767.22;4877044;28;20513;-85
2023/08/05 07:19:33;;;;;;;6.72;2.88;;;;;;;19.44;72.93;99765.97;4982841;28;20045;-85
2023/08/05 07:22:00;;;;;;;5.15;2.85;;;;;;;19.39;73.38;99761.16;4975596;28;20041;-85
2023/08/05 07:24:27;;;;;;;4.85;3.10;;;;;;;19.41;74.06;99769.03;5021052;28;20065;-85
2023/08/05 07:26:54;;;;;;;5.07;2.78;;;;;;;19.46;73.77;99775.50;5001886;28;20044;-84
2023/08/05 07:29:21;;;;;;;5.85;3.00;;;;;;;19.41;73.38;99771.72;5003173;28;20052;-87
2023/08/05 07:31:48;;;;;;;4.82;2.88;;;;;;;19.44;73.06;99769.47;5006896;28;20050;-87
2023/08/05 07:34:16;;;;;;;6.80;3.00;;;;;;;19.43;72.43;99781.25;5029693;28;20053;-87
2023/08/05 07:36:46;;;;;;;8.85;3.72;;;;;;;19.46;72.94;99766.56;5032894;28;20121;-87
2023/08/05 07:39:12;;;;;;;5.45;2.90;;;;;;;19.47;73.08;99773.66;4965151;28;20066;-87
2023/08/05 07:41:39;;;;;;;3.55;2.78;;;;;;;19.57;73.51;99781.38;4982240;28;20050;-88
2023/08/05 07:44:07;;;;;;;3.45;2.60;;;;;;;19.59;73.30;99774.78;4964415;28;20462;-88
2023/08/05 07:46:37;;;;;;;7.72;3.95;;;;;;;19.65;73.28;99771.28;4979659;28;20121;-85
2023/08/05 07:49:04;;;;;;;6.35;3.05;;;;;;;19.73;73.96;99775.72;4968243;28;20406;-86
2023/08/05 07:51:31;;;;;;;4.50;3.05;;;;;;;19.81;73.61;99775.56;4965941;28;20049;-86
2023/08/05 07:53:57;;;;;;;5.15;3.00;;;;;;;19.87;73.45;99773.94;4983774;28;20120;-85
2023/08/05 07:56:25;;;;;;;5.30;2.42;;;;;;;19.90;73.82;99760.91;4966586;28;20057;-90
2023/08/05 07:58:52;;;;;;;6.35;3.58;;;;;;;19.96;74.67;99764.69;4965849;28;20050;-91
2023/08/05 08:01:22;;;;;;;4.20;3.00;;;;;;;19.98;74.44;99759.09;4985316;28;20038;-90
2023/08/05 08:03:53;;;;;;;4.05;3.25;;;;;;;20.00;73.99;99752.47;4990485;28;20041;-91
2023/08/05 08:06:21;;;;;;;3.05;2.60;;;;;;;19.99;73.45;99747.28;5001479;28;20088;-90
2023/08/05 08:08:48;;;;;;;4.40;2.70;;;;;;;19.97;73.35;99752.84;5026788;28;20401;-87
2023/08/05 08:11:15;;;;;;;4.78;2.63;;;;;;;19.97;73.12;99749.34;4988990;28;20041;-86
2023/08/05 08:13:42;;;;;;;4.22;2.58;;;;;;;19.98;73.32;99751.84;4986925;28;20445;-86
2023/08/05 08:16:09;;;;;;;2.63;2.42;;;;;;;20.04;73.23;99748.34;5012940;28;20038;-87
2023/08/05 08:18:36;;;;;;;2.88;2.58;;;;;;;20.04;71.99;99745.63;4974108;28;20073;-87
2023/08/05 08:21:04;;;;;;;2.83;2.33;;;;;;;20.07;71.27;99744.41;5010650;28;20061;-87
2023/08/05 08:23:31;;;;;;;3.13;2.63;;;;;;;20.11;72.60;99748.38;4984198;28;20137;-86
2023/08/05 08:25:58;;;;;;;3.03;2.53;;;;;;;20.17;73.08;99737.63;5003597;28;20038;-88
2023/08/05 08:28:28;;;;;;;5.10;2.60;;;;;;;20.23;72.89;99752.19;5004932;28;20045;-86
2023/08/05 08:30:58;;;;;;;3.83;2.50;;;;;;;20.24;71.93;99736.81;5012100;28;20042;-86
2023/08/05 08:33:25;;;;;;;3.83;2.50;;;;;;;20.25;71.56;99738.47;4963580;28;20043;-87
2023/08/05 08:35:53;;;;;;;3.50;2.30;;;;;;;20.20;69.96;99732.84;4984150;28;20138;-86
2023/08/05 08:38:22;;;;;;;3.63;1.80;;;;;;;20.20;67.96;99732.84;4968163;28;20042;-86
2023/08/05 08:40:50;;;;;;;2.15;1.55;;;;;;;20.16;67.15;99727.88;5026956;28;20042;-86
2023/08/05 08:43:21;;;;;;;4.32;1.75;;;;;;;20.19;67.54;99725.81;5008688;28;20046;-87
2023/08/05 08:45:51;;;;;;;2.33;1.95;;;;;;;20.23;67.97;99711.72;5012549;28;20498;-86
2023/08/05 08:48:19;;;;;;;3.95;2.20;;;;;;;20.29;68.76;99723.56;4965724;28;20117;-86
2023/08/05 08:50:51;;;;;;;2.90;2.07;;;;;;;20.30;68.01;99715.28;4983264;28;20085;-86
2023/08/05 08:53:19;;;;;;;3.20;2.28;;;;;;;20.34;69.36;99718.41;5035030;28;20053;-85
2023/08/05 08:55:46;;;;;;;2.80;2.00;;;;;;;20.37;69.24;99720.69;5018374;28;20041;-87
2023/08/05 08:58:13;;;;;;;2.58;2.28;;;;;;;20.43;69.38;99708.25;4986711;28;20049;-86
2023/08/05 09:00:40;;;;;;;2.15;1.92;;;;;;;20.50;69.43;99709.09;4987110;28;20046;-87
2023/08/05 09:03:07;;;;;;;3.88;2.25;;;;;;;20.56;69.35;99719.13;4973631;28;20054;-87
2023/08/05 09:05:53;;;;;;;2.78;1.77;;;;;;;20.51;69.10;99713.50;4989374;28;20046;-87
2023/08/05 09:08:20;;;;;;;4.13;2.05;;;;;;;20.58;68.85;99711.66;4950410;28;20065;-88
2023/08/05 09:10:47;;;;;;;2.45;1.80;;;;;;;20.60;67.66;99705.00;4981750;28;20074;-89
2023/08/05 09:13:19;;;;;;;3.83;2.00;;;;;;;20.58;68.47;99704.41;4951355;28;20042;-88
2023/08/05 09:15:46;;;;;;;2.37;1.93;;;;;;;20.60;68.77;99688.81;4938522;28;20122;-88
2023/08/05 09:18:13;;;;;;;3.15;2.20;;;;;;;20.67;68.78;99690.72;4976394;28;20455;-89
2023/08/05 09:20:40;;;;;;;2.65;2.03;;;;;;;20.67;68.65;99713.13;5002550;28;20053;-88
2023/08/05 09:23:10;;;;;;;3.80;1.95;;;;;;;20.65;68.05;99712.50;4988356;28;20492;-87
2023/08/05 09:25:41;;;;;;;2.10;1.77;;;;;;;20.67;69.01;99710.44;4999820;28;20394;-87
2023/08/05 09:28:08;;;;;;;3.35;2.10;;;;;;;20.71;68.95;99706.31;4959058;28;20057;-87
2023/08/05 09:30:35;;;;;;;5.20;1.90;;;;;;;20.74;68.63;99716.69;4994904;28;20579;-87
2023/08/05 09:33:02;;;;;;;4.43;2.33;;;;;;;20.71;67.84;99714.41;5001296;28;20061;-87
2023/08/05 09:35:30;;;;;;;2.13;1.80;;;;;;;20.70;67.67;99717.28;4986963;28;20056;-89
2023/08/05 09:37:57;;;;;;;3.10;1.73;;;;;;;20.71;67.51;99694.66;4987508;28;20472;-87
2023/08/05 09:40:28;;;;;;;3.75;2.13;;;;;;;20.74;67.92;99694.28;4982859;28;20065;-88
2023/08/05 09:43:00;;;;;;;3.28;2.17;;;;;;;20.79;68.62;99692.59;5032297;28;20092;-89
2023/08/05 09:45:33;;;;;;;6.65;2.17;;;;;;;20.83;67.77;99695.72;5018844;28;20092;-87
2023/08/05 09:48:08;;;;;;;2.38;1.70;;;;;;;20.85;66.72;99685.56;5000573;28;20487;-86
2023/08/05 09:50:37;;;;;;;4.55;2.13;;;;;;;20.83;66.27;99686.78;5000534;28;20108;-86
2023/08/05 09:53:09;;;;;;;3.33;2.00;;;;;;;20.83;66.10;99690.31;4999422;28;20050;-87
2023/08/05 09:55:36;;;;;;;4.25;2.58;;;;;;;20.85;67.11;99680.16;4986412;28;20563;-87
2023/08/05 09:58:07;;;;;;;4.18;2.33;;;;;;;20.88;67.00;99678.91;5020700;28;20405;-87
2023/08/05 10:00:37;;;;;;;4.43;2.40;;;;;;;20.91;66.00;99676.63;5017719;28;20129;-87
2023/08/05 10:03:06;;;;;;;3.78;1.92;;;;;;;20.83;65.90;99676.81;5003365;28;20064;-87
2023/08/05 10:05:34;;;;;;;3.38;2.03;;;;;;;20.80;66.34;99669.97;4965137;28;20046;-87
2023/08/05 10:08:03;;;;;;;5.13;2.40;;;;;;;20.84;66.47;99677.66;5014343;28;20504;-88
2023/08/05 10:10:31;;;;;;;3.75;2.53;;;;;;;20.83;67.02;99671.41;4993144;28;20045;-87
2023/08/05 10:13:02;;;;;;;2.22;2.03;;;;;;;20.79;65.80;99668.31;4996581;28;20784;-87
2023/08/05 10:15:31;;;;;;;5.72;2.47;;;;;;;20.78;65.64;99669.34;4999688;28;20563;-86
2023/08/05 10:17:57;;;;;;;3.97;2.13;;;;;;;20.74;64.87;99649.22;4972992;28;20489;-86
2023/08/05 10:20:24;;;;;;;3.10;1.92;;;;;;;20.79;65.37;99659.41;4996116;28;20398;-87
2023/08/05 10:23:08;;;;;;;2.00;1.90;;;;;;;20.76;63.83;99657.09;5000652;28;20434;-87
2023/08/05 10:25:42;;;;;;;4.70;1.98;;;;;;;20.83;64.70;99659.81;4970887;28;20069;-88
2023/08/05 10:28:10;;;;;;;5.20;2.97;;;;;;;20.87;63.80;99644.88;4989846;28;20054;-88
2023/08/05 10:30:44;;;;;;;4.45;2.08;;;;;;;20.88;61.94;99655.44;5002907;28;20030;-87
2023/08/05 10:33:11;;;;;;;2.53;1.80;;;;;;;20.92;62.26;99645.09;5018688;28;20489;-87
2023/08/05 10:35:40;;;;;;;3.40;2.05;;;;;;;20.96;63.21;99641.75;5011943;28;20040;-88
2023/08/05 10:38:08;;;;;;;3.53;2.28;;;;;;;20.94;62.77;99635.72;4970715;28;21390;-87
2023/08/05 10:40:56;;;;;;;3.00;1.88;;;;;;;20.91;62.65;99633.44;4978466;28;20124;-87
2023/08/05 10:43:37;;;;;;;3.67;2.50;;;;;;;20.98;63.10;99633.44;4966950;28;20053;-88
2023/08/05 10:46:06;;;;;;;2.30;2.10;;;;;;;21.05;63.44;99623.47;4971248;28;20053;-87
2023/08/05 10:48:47;;;;;;;3.83;2.20;;;;;;;21.09;63.57;99615.78;4979159;28;20058;-87
2023/08/05 10:51:15;;;;;;;4.97;2.15;;;;;;;21.08;63.66;99614.13;5017617;28;20562;-86
2023/08/05 10:53:44;;;;;;;3.20;2.30;;;;;;;21.09;63.11;99610.38;5000282;28;20046;-86
2023/08/05 10:56:11;;;;;;;3.28;2.17;;;;;;;21.06;63.66;99602.69;4952901;28;20054;-88
2023/08/05 10:58:49;;;;;;;3.72;2.38;;;;;;;20.98;63.30;99611.84;4989007;28;20046;-87
2023/08/05 11:01:17;;;;;;;3.38;2.17;;;;;;;21.00;63.15;99607.06;4966884;28;20054;-86
2023/08/05 11:03:49;;;;;;;4.95;2.50;;;;;;;21.06;63.70;99608.09;4956151;28;20065;-87
2023/08/05 11:06:25;;;;;;;4.50;2.35;;;;;;;21.02;63.39;99597.72;4960806;28;20049;-87
2023/08/05 11:08:52;;;;;;;4.13;2.45;;;;;;;21.08;63.88;99601.44;4997744;28;20057;-88
2023/08/05 11:11:19;;;;;;;4.60;2.45;;;;;;;21.10;63.39;99595.84;4986620;28;20081;-88
2023/08/05 11:13:48;;;;;;;5.25;1.80;;;;;;;21.12;62.59;99593.78;4981432;28;20042;-87
2023/08/05 11:16:16;;;;;;;2.17;2.03;;;;;;;21.15;61.85;99583.38;4968696;28;20046;-88
2023/08/05 11:18:47;;;;;;;3.60;2.55;;;;;;;21.09;62.26;99584.22;4967940;28;20105;-87
2023/08/05 11:21:15;;;;;;;2.97;2.40;;;;;;;21.08;61.68;99592.53;4976434;28;20046;-87
2023/08/05 11:23:43;;;;;;;2.83;2.30;;;;;;;21.10;61.43;99576.94;4964343;28;20475;-87
2023/08/05 11:26:10;;;;;;;2.13;2.00;;;;;;;21.12;61.95;99583.81;4960179;28;20077;-87
2023/08/05 11:28:46;;;;;;;5.47;2.33;;;;;;;21.16;61.96;99584.19;4943379;28;20052;-87
2023/08/05 11:31:24;;;;;;;4.95;2.30;;;;;;;21.23;62.48;99588.53;4967556;28;20125;-87
2023/08/05 11:33:51;;;;;;;2.33;2.05;;;;;;;21.29;61.68;99591.44;4955140;28;20038;-88
2023/08/05 11:36:26;;;;;;;4.80;2.10;;;;;;;21.30;61.48;99590.41;5021116;28;20501;-87